| time (UTC) | temp F | wind direction | speed knots | gust knots | rain 1hr in | rain 24hr in | rain mn in | humidity % | barometer mb |
| 20260507232936 | 49 | 45 | 0.0 | 0.0 | 0.00 | 0.00 | 0.00 | 87 | 1012.2 |
| 20260507231437 | 50 | 45 | 0.0 | 0.0 | 0.00 | 0.00 | 0.00 | 86 | 1012.2 |
| 20260507225937 | 50 | 45 | 0.0 | 0.0 | 0.00 | 0.00 | 0.00 | 86 | 1012.3 |
| 20260507224437 | 51 | 112 | 0.0 | 0.0 | 0.00 | 0.00 | 0.00 | 86 | 1012.2 |
| 20260507222937 | 51 | 112 | 0.0 | 0.0 | 0.00 | 0.00 | 0.00 | 85 | 1012.2 |
| 20260507221437 | 51 | 112 | 0.0 | 0.0 | 0.00 | 0.00 | 0.00 | 84 | 1012.2 |
| 20260507215937 | 51 | 112 | 0.0 | 0.0 | 0.00 | 0.04 | 0.00 | 84 | 1012.1 |
| 20260507214437 | 51 | 112 | 0.0 | 0.0 | 0.00 | 0.04 | 0.00 | 83 | 1012.1 |
| 20260507212937 | 52 | 112 | 0.0 | 0.0 | 0.00 | 0.04 | 0.00 | 83 | 1012.1 |
| 20260507211437 | 52 | 112 | 0.0 | 0.0 | 0.00 | 0.04 | 0.00 | 81 | 1012.2 |
| 20260507205937 | 53 | 112 | 0.0 | 1.7 | 0.00 | 0.08 | 0.00 | 80 | 1012.1 |
| 20260507204437 | 54 | 112 | 0.9 | 0.9 | 0.00 | 0.08 | 0.00 | 78 | 1012.1 |
| 20260507202937 | 55 | 112 | 3.5 | 3.5 | 0.00 | 0.08 | 0.00 | 75 | 1012.0 |
| 20260507201437 | 56 | 337 | 0.0 | 0.0 | 0.00 | 0.08 | 0.00 | 75 | 1011.9 |
| 20260507195937 | 56 | 337 | 0.9 | 0.9 | 0.00 | 0.08 | 0.00 | 74 | 1012.1 |
| 20260507194437 | 57 | 292 | 0.0 | 0.0 | 0.00 | 0.08 | 0.00 | 69 | 1011.9 |
| 20260507192937 | 59 | 292 | 0.0 | 0.0 | 0.00 | 0.08 | 0.00 | 65 | 1012.0 |
| 20260507191437 | 60 | 292 | 0.0 | 0.0 | 0.00 | 0.08 | 0.00 | 63 | 1012.1 |
| 20260507185937 | 61 | 292 | 0.0 | 0.0 | 0.00 | 0.08 | 0.00 | 62 | 1011.8 |
| 20260507184437 | 62 | 292 | 1.7 | 1.7 | 0.00 | 0.08 | 0.00 | 60 | 1011.7 |
| 20260507182937 | 63 | 292 | 1.7 | 1.7 | 0.00 | 0.08 | 0.00 | 59 | 1011.4 |
| 20260507181437 | 64 | 292 | 3.5 | 3.5 | 0.00 | 0.08 | 0.00 | 59 | 1011.4 |
| 20260507175937 | 65 | 292 | 1.7 | 2.6 | 0.00 | 0.08 | 0.00 | 57 | 1011.4 |
| 20260507174437 | 66 | 292 | 3.5 | 5.2 | 0.00 | 0.08 | 0.00 | 54 | 1011.4 |
| 20260507172937 | 67 | 292 | 0.0 | 4.3 | 0.00 | 0.08 | 0.00 | 50 | 1011.2 |
| 20260507171437 | 68 | 292 | 5.2 | 5.2 | 0.00 | 0.08 | 0.00 | 47 | 1011.2 |
| 20260507165937 | 69 | 202 | 6.1 | 6.1 | 0.00 | 0.08 | 0.00 | 46 | 1011.2 |
| 20260507164437 | 69 | 247 | 1.7 | 6.1 | 0.00 | 0.08 | 0.00 | 45 | 1011.2 |
| 20260507162937 | 69 | 180 | 1.7 | 4.3 | 0.00 | 0.08 | 0.00 | 44 | 1011.3 |
| 20260507161437 | 70 | 225 | 4.3 | 4.3 | 0.00 | 0.08 | 0.00 | 45 | 1011.3 |
| 20260507155937 | 70 | 225 | 2.6 | 5.2 | 0.00 | 0.08 | 0.00 | 45 | 1011.1 |
| 20260507154437 | 70 | 270 | 7.8 | 7.8 | 0.00 | 0.08 | 0.00 | 44 | 1011.1 |
| 20260507152937 | 71 | 202 | 3.5 | 3.5 | 0.00 | 0.08 | 0.00 | 44 | 1011.2 |
| 20260507151437 | 71 | 202 | 3.5 | 3.5 | 0.00 | 0.08 | 0.00 | 43 | 1011.4 |
| 20260507145937 | 71 | 202 | 3.5 | 5.2 | 0.00 | 0.08 | 0.00 | 44 | 1011.4 |
| 20260507144437 | 71 | 270 | 6.1 | 7.0 | 0.00 | 0.08 | 0.00 | 43 | 1011.6 |
| 20260507142937 | 70 | 292 | 2.6 | 2.6 | 0.00 | 0.08 | 0.00 | 44 | 1011.6 |
| 20260507141437 | 71 | 225 | 1.7 | 3.5 | 0.00 | 0.08 | 0.00 | 44 | 1011.8 |
| 20260507135937 | 70 | 225 | 3.5 | 5.2 | 0.00 | 0.08 | 0.00 | 45 | 1011.9 |
| 20260507134437 | 71 | 247 | 8.7 | 8.7 | 0.00 | 0.08 | 0.00 | 46 | 1012.0 |
| 20260507132937 | 71 | 202 | 5.2 | 5.2 | 0.00 | 0.08 | 0.00 | 47 | 1012.0 |
| 20260507131437 | 70 | 270 | 4.3 | 7.8 | 0.00 | 0.08 | 0.00 | 47 | 1012.0 |
| 20260507125937 | 70 | 270 | 0.0 | 4.3 | 0.00 | 0.08 | 0.00 | 49 | 1012.0 |
| 20260507124437 | 70 | 270 | 2.6 | 2.6 | 0.00 | 0.08 | 0.00 | 49 | 1011.9 |
| 20260507122938 | 70 | 292 | 3.5 | 3.5 | 0.00 | 0.08 | 0.00 | 48 | 1012.2 |
| 20260507121438 | 69 | 270 | 1.7 | 1.7 | 0.00 | 0.08 | 0.00 | 50 | 1012.2 |
| 20260507115938 | 69 | 292 | 4.3 | 4.3 | 0.00 | 0.08 | 0.00 | 50 | 1012.4 |
| 20260507114438 | 69 | 270 | 0.0 | 6.1 | 0.00 | 0.08 | 0.00 | 51 | 1012.6 |
| 20260507112938 | 69 | 180 | 0.0 | 3.5 | 0.00 | 0.08 | 0.00 | 53 | 1012.7 |
| 20260507111438 | 68 | 180 | 4.3 | 4.3 | 0.00 | 0.08 | 0.00 | 55 | 1012.8 |
| 20260507105938 | 68 | 180 | 5.2 | 5.2 | 0.00 | 0.08 | 0.00 | 56 | 1012.9 |
| 20260507104438 | 68 | 202 | 7.0 | 7.0 | 0.00 | 0.08 | 0.00 | 56 | 1013.0 |
| 20260507102938 | 68 | 247 | 0.9 | 0.9 | 0.00 | 0.08 | 0.00 | 59 | 1013.2 |
| 20260507101438 | 68 | 270 | 0.0 | 2.6 | 0.00 | 0.08 | 0.00 | 60 | 1013.3 |
| 20260507095938 | 67 | 270 | 0.0 | 5.2 | 0.00 | 0.08 | 0.00 | 62 | 1013.4 |
| 20260507094438 | 67 | 202 | 0.0 | 0.0 | 0.00 | 0.08 | 0.00 | 64 | 1013.5 |
| 20260507092938 | 66 | 292 | 0.0 | 4.3 | 0.00 | 0.08 | 0.00 | 65 | 1013.5 |
| 20260507091438 | 66 | 337 | 0.0 | 0.0 | 0.00 | 0.08 | 0.00 | 68 | 1013.2 |
| 20260507085938 | 64 | 270 | 2.6 | 3.5 | 0.00 | 0.08 | 0.00 | 70 | 1013.3 |
| 20260507084438 | 64 | 270 | 3.5 | 3.5 | 0.00 | 0.08 | 0.00 | 71 | 1013.5 |
| 20260507082938 | 63 | 270 | 0.0 | 0.0 | 0.00 | 0.08 | 0.00 | 75 | 1013.3 |
| 20260507081746 | 62 | 315 | 0.0 | 0.0 | 0.00 | 0.08 | 0.00 | 76 | 1013.5 |
| 20260507081706 | 62 | 315 | 0.0 | 0.0 | 0.00 | 0.08 | 0.00 | 76 | 1013.5 |
| 20260507081438 | 62 | 315 | 0.0 | 0.0 | 0.00 | 0.08 | 0.00 | 76 | 1013.5 |
| 20260507075938 | 61 | 22 | 0.9 | 1.7 | 0.00 | 0.08 | 0.00 | 77 | 1013.4 |
| 20260507074438 | 60 | 0 | 0.0 | 0.0 | 0.00 | 0.08 | 0.00 | 80 | 1013.3 |
| 20260507072938 | 59 | 45 | 0.0 | 3.5 | 0.00 | 0.08 | 0.00 | 83 | 1013.2 |
| 20260507071439 | 58 | 112 | 0.0 | 0.0 | 0.00 | 0.08 | 0.00 | 83 | 1013.2 |
| 20260507070012 | 56 | 112 | 0.0 | 4.3 | 0.00 | 0.08 | 0.00 | 84 | 1013.1 |
| 20260507065938 | 56 | 112 | 0.0 | 4.3 | 0.00 | 0.08 | 0.00 | 84 | 1013.1 |
| 20260507064438 | 55 | 90 | 0.0 | 0.0 | 0.00 | 0.08 | 0.00 | 89 | 1013.0 |
| 20260507062938 | 54 | 135 | 0.9 | 0.9 | 0.00 | 0.08 | 0.00 | 92 | 1013.0 |
| 20260507061438 | 53 | 112 | 0.0 | 0.0 | 0.00 | 0.08 | 0.00 | 92 | 1013.1 |
| 20260507055938 | 52 | 112 | 1.7 | 1.7 | 0.00 | 0.08 | 0.00 | 93 | 1013.0 |
| 20260507054438 | 51 | 112 | 4.3 | 4.3 | 0.00 | 0.08 | 0.00 | 93 | 1012.8 |
| 20260507052938 | 51 | 90 | 2.6 | 2.6 | 0.00 | 0.08 | 0.00 | 93 | 1012.6 |
| 20260507051438 | 51 | 67 | 0.0 | 0.0 | 0.00 | 0.08 | 0.00 | 93 | 1012.6 |
| 20260507045938 | 50 | 67 | 0.0 | 0.0 | 0.00 | 0.10 | 0.00 | 93 | 1012.5 |
| 20260507044438 | 49 | 90 | 0.0 | 0.0 | 0.00 | 0.10 | 0.00 | 92 | 1012.2 |
| 20260507042938 | 48 | 90 | 0.0 | 0.0 | 0.00 | 0.10 | 0.00 | 92 | 1012.2 |
| 20260507041438 | 48 | 90 | 0.0 | 0.0 | 0.00 | 0.10 | 0.00 | 92 | 1011.9 |
| 20260507035938 | 49 | 90 | 0.0 | 0.0 | 0.00 | 0.10 | 0.00 | 92 | 1011.9 |
| 20260507034438 | 49 | 90 | 0.0 | 0.0 | 0.00 | 0.10 | 0.00 | 92 | 1011.9 |
| 20260507032938 | 49 | 90 | 0.0 | 0.0 | 0.00 | 0.10 | 0.00 | 92 | 1011.8 |
| 20260507031438 | 50 | 90 | 0.0 | 0.0 | 0.00 | 0.10 | 0.00 | 92 | 1011.6 |
| 20260507025938 | 50 | 67 | 0.0 | 0.0 | 0.00 | 0.14 | 0.00 | 92 | 1011.8 |
| 20260507024438 | 50 | 67 | 0.0 | 0.0 | 0.00 | 0.14 | 0.00 | 92 | 1011.8 |
| 20260507022938 | 50 | 67 | 0.0 | 0.0 | 0.00 | 0.14 | 0.00 | 91 | 1011.7 |
| 20260507021438 | 50 | 67 | 0.0 | 0.0 | 0.00 | 0.14 | 0.00 | 91 | 1011.7 |
| 20260507015938 | 51 | 67 | 0.0 | 0.0 | 0.00 | 0.59 | 0.00 | 91 | 1011.7 |
| 20260507014439 | 51 | 67 | 0.0 | 0.0 | 0.00 | 0.59 | 0.00 | 91 | 1011.6 |
| 20260507012939 | 51 | 67 | 0.0 | 0.0 | 0.00 | 0.59 | 0.00 | 91 | 1011.6 |
| 20260507011439 | 52 | 67 | 0.0 | 0.0 | 0.00 | 0.59 | 0.00 | 91 | 1011.6 |
| 20260507005939 | 52 | 67 | 0.0 | 0.0 | 0.00 | 1.26 | 0.00 | 91 | 1011.8 |
| 20260507004439 | 52 | 67 | 0.0 | 0.0 | 0.00 | 1.26 | 0.00 | 91 | 1011.7 |
| 20260507002939 | 52 | 67 | 0.0 | 0.0 | 0.00 | 1.26 | 0.00 | 91 | 1011.6 |
| 20260507001439 | 53 | 67 | 0.9 | 0.9 | 0.00 | 1.26 | 0.00 | 91 | 1011.7 |
| 20260506235939 | 53 | 90 | 0.9 | 0.9 | 0.00 | 1.26 | 0.00 | 91 | 1011.6 |
| 20260506234439 | 53 | 90 | 0.9 | 0.9 | 0.02 | 1.26 | 0.00 | 91 | 1011.7 |